Time;durP1;ratioP1;P1;durP2;ratioP2;P2;SDS_P1;SDS_P2;PMS_P1;PMS_P2;Temp;Humidity;BMP_temperature;BMP_pressure;BME280_temperature;BME280_humidity;BME280_pressure;Samples;Min_cycle;Max_cycle;Signal;HPM_P1;HPM_P2
2023/03/30 00:02:02;;;;;;;;;1.00;1.00;;;;;;;;5041226;28;9639;-83
2023/03/30 00:04:28;;;;;;;;;3.00;0.50;;;;;;;;5041175;28;9451;-82
2023/03/30 00:06:54;;;;;;;;;1.25;1.25;;;;;;;;5040820;28;9953;-83
2023/03/30 00:09:21;;;;;;;;;2.50;1.00;;;;;;;;5041272;28;8856;-84
2023/03/30 00:11:46;;;;;;;;;1.50;0.25;;;;;;;;5051709;28;9764;-83
2023/03/30 00:14:12;;;;;;;;;0.75;0.75;;;;;;;;5062716;28;9521;-83
2023/03/30 00:16:37;;;;;;;;;4.00;1.75;;;;;;;;5060251;28;9911;-83
2023/03/30 00:19:02;;;;;;;;;1.00;1.00;;;;;;;;5061088;28;8814;-83
2023/03/30 00:21:28;;;;;;;;;1.00;1.00;;;;;;;;5062055;28;8798;-83
2023/03/30 00:23:53;;;;;;;;;1.00;1.00;;;;;;;;5096195;28;8869;-83
2023/03/30 00:26:18;;;;;;;;;2.00;1.00;;;;;;;;5102233;28;8770;-83
2023/03/30 00:28:44;;;;;;;;;0.00;0.00;;;;;;;;5102273;28;9965;-83
2023/03/30 00:31:12;;;;;;;;;1.75;1.00;;;;;;;;5102292;28;8879;-83
2023/03/30 00:33:37;;;;;;;;;2.00;2.00;;;;;;;;5102270;28;8811;-84
2023/03/30 00:36:02;;;;;;;;;3.00;1.25;;;;;;;;5101979;28;10050;-83
2023/03/30 00:38:28;;;;;;;;;2.00;0.25;;;;;;;;5101257;28;8924;-83
2023/03/30 00:40:55;;;;;;;;;1.00;1.00;;;;;;;;5102204;28;8794;-83
2023/03/30 00:43:21;;;;;;;;;1.00;1.00;;;;;;;;5101124;28;8820;-83
2023/03/30 00:45:46;;;;;;;;;2.50;1.25;;;;;;;;5100099;28;9928;-83
2023/03/30 00:48:11;;;;;;;;;3.75;2.00;;;;;;;;5088458;28;8845;-83
2023/03/30 00:50:46;;;;;;;;;1.50;1.00;;;;;;;;5081993;28;8918;-83
2023/03/30 00:53:16;;;;;;;;;2.50;2.50;;;;;;;;5071270;28;8799;-83
2023/03/30 00:55:43;;;;;;;;;4.75;1.75;;;;;;;;5104751;28;9969;-83
2023/03/30 00:58:09;;;;;;;;;0.00;0.00;;;;;;;;5087487;28;9807;-83
2023/03/30 01:00:37;;;;;;;;;1.75;1.75;;;;;;;;5087349;28;9701;-83
2023/03/30 01:03:04;;;;;;;;;1.50;1.50;;;;;;;;5100741;28;11347;-84
2023/03/30 01:05:29;;;;;;;;;1.00;1.00;;;;;;;;5087728;28;9993;-83
2023/03/30 01:07:56;;;;;;;;;1.00;1.00;;;;;;;;5105170;28;9793;-83
2023/03/30 01:10:22;;;;;;;;;1.50;0.75;;;;;;;;5105097;28;8767;-83
2023/03/30 01:12:48;;;;;;;;;2.50;1.00;;;;;;;;5087165;28;9957;-83
2023/03/30 01:15:15;;;;;;;;;3.00;1.25;;;;;;;;5097045;28;8913;-83
2023/03/30 01:17:46;;;;;;;;;1.00;1.00;;;;;;;;5067193;28;8829;-83
2023/03/30 01:20:27;;;;;;;;;1.00;1.00;;;;;;;;5072809;28;9877;-83
2023/03/30 01:23:04;;;;;;;;;1.00;1.00;;;;;;;;5088774;28;9838;-82
2023/03/30 01:25:49;;;;;;;;;0.50;0.50;;;;;;;;5103784;28;10231;-83
2023/03/30 01:28:20;;;;;;;;;1.00;1.00;;;;;;;;5103700;28;9797;-83
2023/03/30 01:31:13;;;;;;;;;1.00;1.00;;;;;;;;5103379;28;9567;-83
2023/03/30 01:33:57;;;;;;;;;1.75;0.50;;;;;;;;5066990;28;9897;-83
2023/03/30 01:36:45;;;;;;;;;1.00;1.00;;;;;;;;5066398;28;10002;-83
2023/03/30 01:39:18;;;;;;;;;1.00;1.00;;;;;;;;5083336;28;9749;-83
2023/03/30 01:41:53;;;;;;;;;1.25;0.75;;;;;;;;5085180;28;9705;-83
2023/03/30 01:44:24;;;;;;;;;0.25;0.25;;;;;;;;5066301;28;9772;-83
2023/03/30 01:46:52;;;;;;;;;1.75;0.50;;;;;;;;5066709;28;10005;-83
2023/03/30 01:49:40;;;;;;;;;2.00;2.00;;;;;;;;5066181;28;9725;-84
2023/03/30 01:52:11;;;;;;;;;2.00;0.75;;;;;;;;5004951;28;10001;-83
2023/03/30 01:54:44;;;;;;;;;1.50;1.00;;;;;;;;5005116;28;9671;-83
2023/03/30 01:57:15;;;;;;;;;2.00;2.00;;;;;;;;5021631;28;9963;-82
2023/03/30 01:59:50;;;;;;;;;1.50;1.50;;;;;;;;5018047;28;9844;-83
2023/03/30 02:02:16;;;;;;;;;1.00;1.00;;;;;;;;5024835;28;9906;-84
2023/03/30 02:04:44;;;;;;;;;4.50;1.75;;;;;;;;5025101;28;9707;-83
2023/03/30 02:07:20;;;;;;;;;0.00;0.00;;;;;;;;5040205;28;9868;-83
2023/03/30 02:09:48;;;;;;;;;1.50;1.50;;;;;;;;5025219;28;9723;-83
2023/03/30 02:12:14;;;;;;;;;1.00;1.00;;;;;;;;5024809;28;9850;-83
2023/03/30 02:14:40;;;;;;;;;3.25;1.00;;;;;;;;5041378;28;9924;-83
2023/03/30 02:17:13;;;;;;;;;4.50;1.00;;;;;;;;5024725;28;10211;-83
2023/03/30 02:19:38;;;;;;;;;1.00;1.00;;;;;;;;5041954;28;10032;-83
2023/03/30 02:22:05;;;;;;;;;1.25;0.75;;;;;;;;5040807;28;9803;-83
2023/03/30 02:24:31;;;;;;;;;1.00;1.00;;;;;;;;5040678;28;8750;-83
2023/03/30 02:26:58;;;;;;;;;1.25;1.00;;;;;;;;5041761;28;9990;-83
2023/03/30 02:29:23;;;;;;;;;0.75;0.75;;;;;;;;5079627;28;9735;-84
2023/03/30 02:31:52;;;;;;;;;0.00;0.00;;;;;;;;5104344;28;9732;-84
2023/03/30 02:34:42;;;;;;;;;1.00;0.00;;;;;;;;5086045;28;9804;-84
2023/03/30 02:37:14;;;;;;;;;1.50;1.00;;;;;;;;5085131;28;10056;-84
2023/03/30 02:39:54;;;;;;;;;2.50;1.00;;;;;;;;5104296;28;9806;-84
2023/03/30 02:42:22;;;;;;;;;0.75;0.75;;;;;;;;5088850;28;9959;-83
2023/03/30 02:45:02;;;;;;;;;5.25;1.50;;;;;;;;5086932;28;9808;-84
2023/03/30 02:47:28;;;;;;;;;1.50;0.75;;;;;;;;5085686;28;10037;-83
2023/03/30 02:49:53;;;;;;;;;0.00;0.00;;;;;;;;5104219;28;9889;-84
2023/03/30 02:52:21;;;;;;;;;1.00;0.00;;;;;;;;5085072;28;8822;-83
2023/03/30 02:54:49;;;;;;;;;1.00;1.00;;;;;;;;5103702;28;9128;-84
2023/03/30 02:57:24;;;;;;;;;6.00;1.00;;;;;;;;5084812;28;10239;-84
2023/03/30 02:59:59;;;;;;;;;1.00;0.00;;;;;;;;5085731;28;9960;-83
2023/03/30 03:02:34;;;;;;;;;1.25;1.25;;;;;;;;5085216;28;9867;-83
2023/03/30 03:05:03;;;;;;;;;0.50;0.50;;;;;;;;5085744;28;9951;-83
2023/03/30 03:07:31;;;;;;;;;1.00;0.00;;;;;;;;5103411;28;10076;-83
2023/03/30 03:09:56;;;;;;;;;2.25;1.25;;;;;;;;5103957;28;9790;-83
2023/03/30 03:12:21;;;;;;;;;1.50;0.00;;;;;;;;5084813;28;10091;-83
2023/03/30 03:14:46;;;;;;;;;0.25;0.25;;;;;;;;5065763;28;8827;-83
2023/03/30 03:17:12;;;;;;;;;1.00;1.00;;;;;;;;5083110;28;8785;-83
2023/03/30 03:19:37;;;;;;;;;1.25;0.25;;;;;;;;5086278;28;8821;-84
2023/03/30 03:22:02;;;;;;;;;1.00;0.00;;;;;;;;5082966;28;8815;-83
2023/03/30 03:24:28;;;;;;;;;1.00;1.00;;;;;;;;5089149;28;8896;-83
2023/03/30 03:26:53;;;;;;;;;1.00;1.00;;;;;;;;5083167;28;8804;-83
2023/03/30 03:29:18;;;;;;;;;1.00;1.00;;;;;;;;5067627;28;8829;-83
2023/03/30 03:31:44;;;;;;;;;0.75;0.75;;;;;;;;5103208;28;8953;-83
2023/03/30 03:34:09;;;;;;;;;1.50;1.00;;;;;;;;5098264;28;8789;-83
2023/03/30 03:36:34;;;;;;;;;0.75;0.75;;;;;;;;5081623;28;10085;-83
2023/03/30 03:38:59;;;;;;;;;0.00;0.00;;;;;;;;5103546;28;8957;-83
2023/03/30 03:41:25;;;;;;;;;0.75;0.75;;;;;;;;5103033;28;8791;-83
2023/03/30 03:43:50;;;;;;;;;1.25;1.00;;;;;;;;5084762;28;8978;-83
2023/03/30 03:46:15;;;;;;;;;1.00;0.00;;;;;;;;5072176;28;9872;-83
2023/03/30 03:48:41;;;;;;;;;0.50;0.50;;;;;;;;5101059;28;8814;-83
2023/03/30 03:51:06;;;;;;;;;1.75;1.00;;;;;;;;5102824;28;8803;-82
2023/03/30 03:53:32;;;;;;;;;2.00;0.25;;;;;;;;5084667;28;8807;-84
2023/03/30 03:55:57;;;;;;;;;1.00;0.75;;;;;;;;5084065;28;10057;-83
2023/03/30 03:58:23;;;;;;;;;0.00;0.00;;;;;;;;5064736;28;8836;-83
2023/03/30 04:00:48;;;;;;;;;2.00;0.00;;;;;;;;5064573;28;8819;-84
2023/03/30 04:03:14;;;;;;;;;2.00;1.00;;;;;;;;5082986;28;8818;-83
2023/03/30 04:05:40;;;;;;;;;2.25;0.00;;;;;;;;5092902;28;9979;-83
2023/03/30 04:08:09;;;;;;;;;4.00;1.00;;;;;;;;5082634;28;8932;-84
2023/03/30 04:10:34;;;;;;;;;1.00;1.00;;;;;;;;5082363;28;10002;-83
2023/03/30 04:13:00;;;;;;;;;0.00;0.00;;;;;;;;5086336;28;9833;-83
2023/03/30 04:15:26;;;;;;;;;0.00;0.00;;;;;;;;5084846;28;9971;-84
2023/03/30 04:17:56;;;;;;;;;0.50;0.50;;;;;;;;5102352;28;8791;-83
2023/03/30 04:20:22;;;;;;;;;1.75;0.00;;;;;;;;5103086;28;8739;-83
2023/03/30 04:22:48;;;;;;;;;1.00;1.00;;;;;;;;5101653;28;9993;-83
2023/03/30 04:25:14;;;;;;;;;1.75;0.00;;;;;;;;5083133;28;10025;-83
2023/03/30 04:27:42;;;;;;;;;0.00;0.00;;;;;;;;5084499;28;9873;-83
2023/03/30 04:30:09;;;;;;;;;2.25;1.00;;;;;;;;5104258;28;8810;-84
2023/03/30 04:32:37;;;;;;;;;1.00;0.00;;;;;;;;5087745;28;10060;-83
2023/03/30 04:35:04;;;;;;;;;3.00;0.00;;;;;;;;5087284;28;10162;-83
2023/03/30 04:37:29;;;;;;;;;3.00;1.25;;;;;;;;5087447;28;9964;-83
2023/03/30 04:39:56;;;;;;;;;2.00;1.00;;;;;;;;5087036;28;10197;-83
2023/03/30 04:42:29;;;;;;;;;0.00;0.00;;;;;;;;5087773;28;8796;-83
2023/03/30 04:44:55;;;;;;;;;0.75;0.75;;;;;;;;5085818;28;10083;-83
2023/03/30 04:47:20;;;;;;;;;2.50;0.00;;;;;;;;5067714;28;9954;-83
2023/03/30 04:49:45;;;;;;;;;3.50;1.00;;;;;;;;5067730;28;11478;-83
2023/03/30 04:52:10;;;;;;;;;2.25;1.00;;;;;;;;5066799;28;8816;-83
2023/03/30 04:54:36;;;;;;;;;2.00;0.50;;;;;;;;5085066;28;8791;-83
2023/03/30 04:57:01;;;;;;;;;5.25;0.50;;;;;;;;5085355;28;8928;-83
2023/03/30 04:59:26;;;;;;;;;1.00;1.00;;;;;;;;5085816;28;8808;-83
2023/03/30 05:01:52;;;;;;;;;1.00;1.00;;;;;;;;5085360;28;8836;-83
2023/03/30 05:04:17;;;;;;;;;0.75;0.75;;;;;;;;5067228;28;9851;-84
2023/03/30 05:06:43;;;;;;;;;4.25;2.00;;;;;;;;5066862;28;9252;-83
2023/03/30 05:09:08;;;;;;;;;1.75;1.75;;;;;;;;5071980;28;8771;-83
2023/03/30 05:11:33;;;;;;;;;0.75;0.75;;;;;;;;5087705;28;8821;-84
2023/03/30 05:13:59;;;;;;;;;2.00;1.00;;;;;;;;5087043;28;10099;-83
2023/03/30 05:16:24;;;;;;;;;1.00;1.00;;;;;;;;5105733;28;8771;-83
2023/03/30 05:18:49;;;;;;;;;2.50;0.25;;;;;;;;5071926;28;9793;-82
2023/03/30 05:21:15;;;;;;;;;3.50;1.75;;;;;;;;5090339;28;8864;-83
2023/03/30 05:23:41;;;;;;;;;1.75;1.00;;;;;;;;5058419;28;10187;-82
2023/03/30 05:26:07;;;;;;;;;1.00;1.00;;;;;;;;5045614;28;8816;-83
2023/03/30 05:28:32;;;;;;;;;1.75;1.00;;;;;;;;5052724;28;10282;-82
2023/03/30 05:30:58;;;;;;;;;2.00;1.00;;;;;;;;5045901;28;8833;-82
2023/03/30 05:33:23;;;;;;;;;1.00;1.00;;;;;;;;5044524;28;8867;-82
2023/03/30 05:35:49;;;;;;;;;2.00;1.25;;;;;;;;5062378;28;8850;-82
2023/03/30 05:38:15;;;;;;;;;2.00;1.00;;;;;;;;5052828;28;8813;-81
2023/03/30 05:40:40;;;;;;;;;2.00;0.00;;;;;;;;5063146;28;10243;-82
2023/03/30 05:43:06;;;;;;;;;1.00;1.00;;;;;;;;5062939;28;10053;-81
2023/03/30 05:45:31;;;;;;;;;1.50;1.25;;;;;;;;5062908;28;9259;-81
2023/03/30 05:47:56;;;;;;;;;1.00;1.00;;;;;;;;5064466;28;8819;-80
2023/03/30 05:50:21;;;;;;;;;2.75;1.00;;;;;;;;5063598;28;8830;-81
2023/03/30 05:52:47;;;;;;;;;6.50;3.50;;;;;;;;5044021;28;9865;-82
2023/03/30 05:55:12;;;;;;;;;1.00;1.00;;;;;;;;5056698;28;8913;-82
2023/03/30 05:57:37;;;;;;;;;2.00;0.00;;;;;;;;5064346;28;8829;-83
2023/03/30 06:00:05;;;;;;;;;1.00;1.00;;;;;;;;5060246;28;8825;-83
2023/03/30 06:02:31;;;;;;;;;2.75;1.00;;;;;;;;5045284;28;8792;-82
2023/03/30 06:04:56;;;;;;;;;1.75;1.00;;;;;;;;5064038;28;10111;-81
2023/03/30 06:07:23;;;;;;;;;3.00;1.75;;;;;;;;5062611;28;9633;-83
2023/03/30 06:09:49;;;;;;;;;2.00;0.50;;;;;;;;5061999;28;8771;-82
2023/03/30 06:12:15;;;;;;;;;1.00;1.00;;;;;;;;5062879;28;10169;-82
2023/03/30 06:14:41;;;;;;;;;1.50;1.00;;;;;;;;5062267;28;10167;-82
2023/03/30 06:17:07;;;;;;;;;0.25;0.25;;;;;;;;5063745;28;8849;-82
2023/03/30 06:19:32;;;;;;;;;0.50;0.00;;;;;;;;5062167;28;8755;-80
2023/03/30 06:21:58;;;;;;;;;0.00;0.00;;;;;;;;5059054;28;10277;-81
2023/03/30 06:24:23;;;;;;;;;4.00;1.50;;;;;;;;5084083;28;9664;-81
2023/03/30 06:26:49;;;;;;;;;3.25;1.75;;;;;;;;5066920;28;8797;-80
2023/03/30 06:29:14;;;;;;;;;4.00;1.50;;;;;;;;5065820;28;8813;-81
2023/03/30 06:31:40;;;;;;;;;0.75;0.75;;;;;;;;5065679;28;9860;-81
2023/03/30 06:34:05;;;;;;;;;1.00;1.00;;;;;;;;5083666;28;8810;-81
2023/03/30 06:36:30;;;;;;;;;0.50;0.50;;;;;;;;5065372;28;9461;-82
2023/03/30 06:38:56;;;;;;;;;0.75;0.75;;;;;;;;5084006;28;8813;-80
2023/03/30 06:41:21;;;;;;;;;3.00;1.75;;;;;;;;5083812;28;8853;-77
2023/03/30 06:43:46;;;;;;;;;5.50;2.00;;;;;;;;5064483;28;9564;-77
2023/03/30 06:46:13;;;;;;;;;1.00;1.00;;;;;;;;5101805;28;8795;-76
2023/03/30 06:48:39;;;;;;;;;1.50;0.75;;;;;;;;5084408;28;8752;-78
2023/03/30 06:51:05;;;;;;;;;0.75;0.75;;;;;;;;5083761;28;10267;-77
2023/03/30 06:53:31;;;;;;;;;2.00;1.00;;;;;;;;5101340;28;8828;-77
2023/03/30 06:55:57;;;;;;;;;1.00;1.00;;;;;;;;5101097;28;9958;-76
2023/03/30 06:58:23;;;;;;;;;1.00;0.50;;;;;;;;5100121;28;8901;-77
2023/03/30 07:00:48;;;;;;;;;1.00;1.00;;;;;;;;5069428;28;10219;-78
2023/03/30 07:03:15;;;;;;;;;2.00;1.00;;;;;;;;5089239;28;10114;-79
2023/03/30 07:05:41;;;;;;;;;1.00;1.00;;;;;;;;5068437;28;8809;-77
2023/03/30 07:08:07;;;;;;;;;5.50;0.50;;;;;;;;5063703;28;10189;-81
2023/03/30 07:10:32;;;;;;;;;1.00;1.00;;;;;;;;5064861;28;10140;-81
2023/03/30 07:12:57;;;;;;;;;3.50;1.25;;;;;;;;5064458;28;8825;-82
2023/03/30 07:15:23;;;;;;;;;2.50;0.00;;;;;;;;5083210;28;9059;-77
2023/03/30 07:17:54;;;;;;;;;0.00;0.00;;;;;;;;5083699;28;9510;-77
2023/03/30 07:20:24;;;;;;;;;1.75;0.50;;;;;;;;5083853;28;10112;-78
2023/03/30 07:22:51;;;;;;;;;2.00;0.50;;;;;;;;5085372;28;10236;-77
2023/03/30 07:25:16;;;;;;;;;2.00;0.75;;;;;;;;5084524;28;8831;-79
2023/03/30 07:27:54;;;;;;;;;5.00;1.00;;;;;;;;5084698;28;10068;-82
2023/03/30 07:30:39;;;;;;;;;1.25;0.50;;;;;;;;5103077;28;8767;-79
2023/03/30 07:33:23;;;;;;;;;1.00;1.00;;;;;;;;5071497;28;9894;-80
2023/03/30 07:35:54;;;;;;;;;2.00;2.00;;;;;;;;5082450;28;10780;-80
2023/03/30 07:38:19;;;;;;;;;1.75;1.50;;;;;;;;5067130;28;10002;-80
2023/03/30 07:40:44;;;;;;;;;1.00;1.00;;;;;;;;5092320;28;11494;-79
2023/03/30 07:43:09;;;;;;;;;0.75;0.75;;;;;;;;5090975;28;8791;-80
2023/03/30 07:45:35;;;;;;;;;6.25;0.25;;;;;;;;5094328;28;8836;-79
2023/03/30 07:48:00;;;;;;;;;1.00;1.00;;;;;;;;5089599;28;8817;-78
2023/03/30 07:50:26;;;;;;;;;2.00;1.00;;;;;;;;5082334;28;8816;-78
2023/03/30 07:52:51;;;;;;;;;1.00;1.00;;;;;;;;5064730;28;8848;-80
2023/03/30 07:55:16;;;;;;;;;0.75;0.75;;;;;;;;5063852;28;8805;-80
2023/03/30 07:57:43;;;;;;;;;2.50;1.00;;;;;;;;5082930;28;8785;-81
2023/03/30 08:00:09;;;;;;;;;2.50;1.50;;;;;;;;5077005;28;10435;-83
2023/03/30 08:02:35;;;;;;;;;2.75;1.50;;;;;;;;5102753;28;9922;-85
2023/03/30 08:05:00;;;;;;;;;2.00;0.00;;;;;;;;5083542;28;9792;-83
2023/03/30 08:07:26;;;;;;;;;2.50;1.00;;;;;;;;5102409;28;9835;-84
2023/03/30 08:09:52;;;;;;;;;2.50;1.00;;;;;;;;5102993;28;8810;-83
2023/03/30 08:12:17;;;;;;;;;3.00;1.00;;;;;;;;5102701;28;9725;-83
2023/03/30 08:14:42;;;;;;;;;3.00;1.00;;;;;;;;5102722;28;8775;-85
2023/03/30 08:17:07;;;;;;;;;9.25;1.25;;;;;;;;5102181;28;8812;-82
2023/03/30 08:19:33;;;;;;;;;0.25;0.25;;;;;;;;5102356;28;9904;-83
2023/03/30 08:22:00;;;;;;;;;1.75;1.75;;;;;;;;5063844;28;8891;-83
2023/03/30 08:24:25;;;;;;;;;1.00;0.00;;;;;;;;5082987;28;8779;-83
2023/03/30 08:26:51;;;;;;;;;1.00;1.00;;;;;;;;5084072;28;9631;-83
2023/03/30 08:29:17;;;;;;;;;0.75;0.75;;;;;;;;5102227;28;8794;-82
2023/03/30 08:31:44;;;;;;;;;2.25;0.00;;;;;;;;5083373;28;8820;-82
2023/03/30 08:34:10;;;;;;;;;1.00;0.00;;;;;;;;5084161;28;9604;-83
2023/03/30 08:36:35;;;;;;;;;2.00;1.00;;;;;;;;5084061;28;9797;-83
2023/03/30 08:39:01;;;;;;;;;0.33;0.33;;;;;;;;5082546;28;10821;-82
2023/03/30 08:41:26;;;;;;;;;1.00;1.00;;;;;;;;5081988;28;8804;-83
2023/03/30 08:43:56;;;;;;;;;0.00;0.00;;;;;;;;5082347;28;8793;-83
2023/03/30 08:46:21;;;;;;;;;0.25;0.25;;;;;;;;5063580;28;8761;-83
2023/03/30 08:48:47;;;;;;;;;3.00;1.00;;;;;;;;5095372;28;9920;-83
2023/03/30 08:51:21;;;;;;;;;1.25;1.00;;;;;;;;5097367;28;8876;-83
2023/03/30 08:53:49;;;;;;;;;4.00;2.00;;;;;;;;5081856;28;9668;-83
2023/03/30 08:56:22;;;;;;;;;1.00;0.00;;;;;;;;5062378;28;9764;-82
2023/03/30 08:58:54;;;;;;;;;1.75;1.75;;;;;;;;5074899;28;10558;-83
2023/03/30 09:01:23;;;;;;;;;2.00;0.25;;;;;;;;5083546;28;9502;-83
2023/03/30 09:03:55;;;;;;;;;1.50;1.00;;;;;;;;5073993;28;9785;-83
2023/03/30 09:06:39;;;;;;;;;1.00;1.00;;;;;;;;5063398;28;10032;-83
2023/03/30 09:09:04;;;;;;;;;1.00;1.00;;;;;;;;5063537;28;9947;-83
2023/03/30 09:11:32;;;;;;;;;1.75;1.75;;;;;;;;5081717;28;9792;-83
2023/03/30 09:14:01;;;;;;;;;3.25;1.00;;;;;;;;5081511;28;8836;-83
2023/03/30 09:16:27;;;;;;;;;2.00;0.75;;;;;;;;5065813;28;9800;-83
2023/03/30 09:18:54;;;;;;;;;3.00;2.00;;;;;;;;5085243;28;9901;-84
2023/03/30 09:21:21;;;;;;;;;3.75;1.00;;;;;;;;5072601;28;8797;-83
2023/03/30 09:23:46;;;;;;;;;2.25;1.00;;;;;;;;5086572;28;9963;-82
2023/03/30 09:26:18;;;;;;;;;0.75;0.75;;;;;;;;5086840;28;10047;-83
2023/03/30 09:29:02;;;;;;;;;4.00;1.75;;;;;;;;5086442;28;9988;-82
2023/03/30 09:31:45;;;;;;;;;1.00;1.00;;;;;;;;5086690;28;11251;-83
2023/03/30 09:34:13;;;;;;;;;2.00;2.00;;;;;;;;5105381;28;9831;-83
2023/03/30 09:36:50;;;;;;;;;2.00;1.00;;;;;;;;5086587;28;10044;-82
2023/03/30 09:39:15;;;;;;;;;1.50;1.00;;;;;;;;5084753;28;10030;-82
2023/03/30 09:41:55;;;;;;;;;6.00;2.75;;;;;;;;5066692;28;9577;-83
2023/03/30 09:44:27;;;;;;;;;2.75;1.00;;;;;;;;5084696;28;8785;-82
2023/03/30 09:46:56;;;;;;;;;3.00;1.25;;;;;;;;5066981;28;9749;-82
2023/03/30 09:49:25;;;;;;;;;1.25;1.25;;;;;;;;5066534;28;10069;-83
2023/03/30 09:51:56;;;;;;;;;5.75;2.00;;;;;;;;5066290;28;9831;-83
2023/03/30 09:54:22;;;;;;;;;1.25;1.00;;;;;;;;5100434;28;9712;-83
2023/03/30 09:56:50;;;;;;;;;3.00;0.75;;;;;;;;5085976;28;9692;-83
2023/03/30 09:59:30;;;;;;;;;1.25;0.00;;;;;;;;5104456;28;10071;-83
2023/03/30 10:02:16;;;;;;;;;2.00;0.50;;;;;;;;5104709;28;9652;-83
2023/03/30 10:04:58;;;;;;;;;1.00;1.00;;;;;;;;5103969;28;9643;-82
2023/03/30 10:07:29;;;;;;;;;3.00;1.00;;;;;;;;5104363;28;9636;-83
2023/03/30 10:09:56;;;;;;;;;2.75;2.00;;;;;;;;5086682;28;10137;-82
2023/03/30 10:12:23;;;;;;;;;3.00;1.25;;;;;;;;5065942;28;9691;-82
2023/03/30 10:15:01;;;;;;;;;4.25;0.75;;;;;;;;5099803;28;9838;-82
2023/03/30 10:17:26;;;;;;;;;3.00;1.25;;;;;;;;5104828;28;9679;-82
2023/03/30 10:19:52;;;;;;;;;0.00;0.00;;;;;;;;5104304;28;9962;-83
2023/03/30 10:22:21;;;;;;;;;1.00;1.00;;;;;;;;5104031;28;8795;-82
2023/03/30 10:24:49;;;;;;;;;3.00;2.00;;;;;;;;5102224;28;9594;-82
2023/03/30 10:27:15;;;;;;;;;4.50;1.75;;;;;;;;5101868;28;9429;-82
2023/03/30 10:29:44;;;;;;;;;2.25;1.00;;;;;;;;5102777;28;9921;-82
2023/03/30 10:32:15;;;;;;;;;3.75;1.75;;;;;;;;5104506;28;8846;-82
2023/03/30 10:34:46;;;;;;;;;4.00;1.00;;;;;;;;5102829;28;9729;-82
2023/03/30 10:37:30;;;;;;;;;3.00;1.67;;;;;;;;5101235;28;9708;-83
2023/03/30 10:39:56;;;;;;;;;2.25;1.00;;;;;;;;5104075;28;9302;-82
2023/03/30 10:42:24;;;;;;;;;3.00;0.00;;;;;;;;5085568;28;9657;-82
2023/03/30 10:44:50;;;;;;;;;2.00;0.50;;;;;;;;5085838;28;9536;-84
2023/03/30 10:47:34;;;;;;;;;1.00;1.00;;;;;;;;5086017;28;9581;-82
2023/03/30 10:50:00;;;;;;;;;1.25;0.25;;;;;;;;5085564;28;9993;-83
2023/03/30 10:52:31;;;;;;;;;1.67;1.33;;;;;;;;5085736;28;9590;-83
2023/03/30 10:55:13;;;;;;;;;1.00;1.00;;;;;;;;5084781;28;8814;-83
2023/03/30 10:57:44;;;;;;;;;1.00;1.00;;;;;;;;5104229;28;9528;-82
2023/03/30 11:00:17;;;;;;;;;2.00;1.00;;;;;;;;5085675;28;10001;-82
2023/03/30 11:03:20;;;;;;;;;5.33;2.33;;;;;;;;5103776;28;10315;-82
2023/03/30 11:05:48;;;;;;;;;2.33;0.67;;;;;;;;5021028;28;9350;-85
2023/03/30 11:08:23;;;;;;;;;0.00;0.00;;;;;;;;5021225;28;9472;-85
2023/03/30 11:10:51;;;;;;;;;3.33;1.00;;;;;;;;5021150;28;10400;-85
2023/03/30 11:13:19;;;;;;;;;4.67;1.00;;;;;;;;5040470;28;9376;-85
2023/03/30 11:15:48;;;;;;;;;1.33;1.00;;;;;;;;5021131;28;9375;-82
2023/03/30 11:18:34;;;;;;;;;0.33;0.00;;;;;;;;5021106;28;9299;-85
2023/03/30 11:21:00;;;;;;;;;1.00;0.67;;;;;;;;5003479;28;10134;-85
2023/03/30 11:23:26;;;;;;;;;0.67;0.67;;;;;;;;5040571;28;9537;-83
2023/03/30 11:25:52;;;;;;;;;3.00;1.00;;;;;;;;5059413;28;9306;-82
2023/03/30 11:28:17;;;;;;;;;0.00;0.00;;;;;;;;5047543;28;9615;-83
2023/03/30 11:30:42;;;;;;;;;2.00;1.00;;;;;;;;5040379;28;8861;-82
2023/03/30 11:33:18;;;;;;;;;3.00;2.00;;;;;;;;5023584;28;8832;-82
2023/03/30 11:35:47;;;;;;;;;1.67;1.67;;;;;;;;5031230;28;8761;-83
2023/03/30 11:38:15;;;;;;;;;0.00;0.00;;;;;;;;5082321;28;9486;-82
2023/03/30 11:40:46;;;;;;;;;4.00;2.00;;;;;;;;5081780;28;10331;-83
2023/03/30 11:43:16;;;;;;;;;1.00;1.00;;;;;;;;5082691;28;9520;-85
2023/03/30 11:46:01;;;;;;;;;3.67;1.67;;;;;;;;5081813;28;9459;-86
2023/03/30 11:48:26;;;;;;;;;0.00;0.00;;;;;;;;5084885;28;9279;-84
2023/03/30 11:51:00;;;;;;;;;2.00;1.00;;;;;;;;5085002;28;9950;-83
2023/03/30 11:53:41;;;;;;;;;1.67;0.67;;;;;;;;5083855;28;8751;-83
2023/03/30 11:56:11;;;;;;;;;0.33;0.00;;;;;;;;5084217;28;9189;-83
2023/03/30 11:58:40;;;;;;;;;5.33;2.00;;;;;;;;5103176;28;9224;-82
2023/03/30 12:01:14;;;;;;;;;5.00;0.67;;;;;;;;5084784;28;11420;-83
2023/03/30 12:03:41;;;;;;;;;0.33;0.33;;;;;;;;5084591;28;10482;-82
2023/03/30 12:06:16;;;;;;;;;1.33;0.00;;;;;;;;5103161;28;9315;-83
2023/03/30 12:08:53;;;;;;;;;2.67;0.00;;;;;;;;5102483;28;9204;-82
2023/03/30 12:11:34;;;;;;;;;2.00;0.00;;;;;;;;5084394;28;10935;-82
2023/03/30 12:14:00;;;;;;;;;2.00;0.00;;;;;;;;5084881;28;9201;-82
2023/03/30 12:16:28;;;;;;;;;0.00;0.00;;;;;;;;5084506;28;9189;-83
2023/03/30 12:19:04;;;;;;;;;0.00;0.00;;;;;;;;5103144;28;8793;-83
2023/03/30 12:21:31;;;;;;;;;5.33;0.00;;;;;;;;5102768;28;9480;-83
2023/03/30 12:24:12;;;;;;;;;0.00;0.00;;;;;;;;5095364;28;9182;-83
2023/03/30 12:26:37;;;;;;;;;0.67;0.33;;;;;;;;5100962;28;9087;-83
2023/03/30 12:29:03;;;;;;;;;1.00;1.00;;;;;;;;5085516;28;9254;-83
2023/03/30 12:31:47;;;;;;;;;3.33;1.00;;;;;;;;5102541;28;8842;-83
2023/03/30 12:34:12;;;;;;;;;5.00;1.00;;;;;;;;5084150;28;8817;-83
2023/03/30 12:36:39;;;;;;;;;5.33;0.67;;;;;;;;5083677;28;9146;-84
2023/03/30 12:39:15;;;;;;;;;3.67;1.00;;;;;;;;5102475;28;8720;-83
2023/03/30 12:41:47;;;;;;;;;2.33;0.67;;;;;;;;5084290;28;10300;-83
2023/03/30 12:44:15;;;;;;;;;4.33;0.33;;;;;;;;5084102;28;9916;-77
2023/03/30 12:46:51;;;;;;;;;1.00;1.00;;;;;;;;5082936;28;9030;-83
2023/03/30 12:49:20;;;;;;;;;0.00;0.00;;;;;;;;5063814;28;9035;-85
2023/03/30 12:51:48;;;;;;;;;2.67;2.00;;;;;;;;5076468;28;10031;-84
2023/03/30 12:54:37;;;;;;;;;0.00;0.00;;;;;;;;5089670;28;9116;-84
2023/03/30 12:57:24;;;;;;;;;5.33;0.67;;;;;;;;5076800;28;9134;-83
2023/03/30 13:00:07;;;;;;;;;3.67;1.00;;;;;;;;5080278;28;8973;-83
2023/03/30 13:02:54;;;;;;;;;1.00;1.00;;;;;;;;5084657;28;9131;-84
2023/03/30 13:05:39;;;;;;;;;2.33;1.00;;;;;;;;5039320;28;9633;-83
2023/03/30 13:08:09;;;;;;;;;2.67;0.67;;;;;;;;5038038;28;9330;-84
2023/03/30 13:10:41;;;;;;;;;2.67;2.00;;;;;;;;5043155;28;9734;-83
2023/03/30 13:13:18;;;;;;;;;1.00;1.00;;;;;;;;5050488;28;10086;-83
2023/03/30 13:15:58;;;;;;;;;1.67;1.00;;;;;;;;5042532;28;9347;-83
2023/03/30 13:19:01;;;;;;;;;1.67;0.00;;;;;;;;5043129;28;10364;-83
2023/03/30 13:21:45;;;;;;;;;1.00;0.00;;;;;;;;5033938;28;9362;-82
2023/03/30 13:24:31;;;;;;;;;1.33;0.33;;;;;;;;5040347;28;9299;-83
2023/03/30 13:27:21;;;;;;;;;0.67;0.00;;;;;;;;5013403;28;9240;-83
2023/03/30 13:30:11;;;;;;;;;1.00;0.00;;;;;;;;5036620;28;9125;-83
2023/03/30 13:33:14;;;;;;;;;2.00;0.00;;;;;;;;5039787;28;9204;-83
2023/03/30 13:35:52;;;;;;;;;1.33;0.00;;;;;;;;4978720;28;10004;-83
2023/03/30 13:38:39;;;;;;;;;1.50;0.00;;;;;;;;4964912;28;9269;-83
2023/03/30 13:41:07;;;;;;;;;1.00;0.00;;;;;;;;4980138;28;9138;-83
2023/03/30 13:43:38;;;;;;;;;1.00;1.00;;;;;;;;4980578;28;8934;-83
2023/03/30 13:46:10;;;;;;;;;1.00;0.00;;;;;;;;4984542;28;9989;-83
2023/03/30 13:48:39;;;;;;;;;0.67;0.00;;;;;;;;5000443;28;9113;-83
2023/03/30 13:51:18;;;;;;;;;0.00;0.00;;;;;;;;4972405;28;8997;-84
2023/03/30 13:53:52;;;;;;;;;0.00;0.00;;;;;;;;4994008;28;8992;-85
2023/03/30 13:56:20;;;;;;;;;0.25;0.00;;;;;;;;4999645;28;10044;-85
2023/03/30 13:58:53;;;;;;;;;0.67;0.00;;;;;;;;4983876;28;8820;-84
2023/03/30 14:01:20;;;;;;;;;0.75;0.00;;;;;;;;4994948;28;8861;-84
2023/03/30 14:03:55;;;;;;;;;0.75;0.00;;;;;;;;4990790;28;8791;-84
2023/03/30 14:06:25;;;;;;;;;0.75;0.00;;;;;;;;4991820;28;10503;-81
2023/03/30 14:08:58;;;;;;;;;0.50;0.00;;;;;;;;4990999;28;8771;-85
2023/03/30 14:11:32;;;;;;;;;0.00;0.00;;;;;;;;5026422;28;8943;-83
2023/03/30 14:13:57;;;;;;;;;0.00;0.00;;;;;;;;5050324;28;8762;-83
2023/03/30 14:16:28;;;;;;;;;0.33;0.00;;;;;;;;5052433;28;9512;-82
2023/03/30 14:19:17;;;;;;;;;0.00;0.00;;;;;;;;5043223;28;8813;-84
2023/03/30 14:21:55;;;;;;;;;0.50;0.00;;;;;;;;5050785;28;8893;-84
2023/03/30 14:24:34;;;;;;;;;0.00;0.00;;;;;;;;5051492;28;8803;-84
2023/03/30 14:27:12;;;;;;;;;0.00;0.00;;;;;;;;5061159;28;10237;-84
2023/03/30 14:29:45;;;;;;;;;0.25;0.00;;;;;;;;5060554;28;8779;-84
2023/03/30 14:32:13;;;;;;;;;1.00;0.00;;;;;;;;5062186;28;8764;-83
2023/03/30 14:34:44;;;;;;;;;2.25;0.50;;;;;;;;5061049;28;8835;-84
2023/03/30 14:37:11;;;;;;;;;5.00;0.50;;;;;;;;5060754;28;8782;-84
2023/03/30 14:39:38;;;;;;;;;0.00;0.00;;;;;;;;5061280;28;8791;-84
2023/03/30 14:42:15;;;;;;;;;0.00;0.00;;;;;;;;5057285;28;8818;-85
2023/03/30 14:44:41;;;;;;;;;0.00;0.00;;;;;;;;5060210;28;8798;-85
2023/03/30 14:47:06;;;;;;;;;3.67;0.00;;;;;;;;5047078;28;8805;-85
2023/03/30 14:49:32;;;;;;;;;2.00;0.00;;;;;;;;5041760;28;8856;-84
2023/03/30 14:52:07;;;;;;;;;0.50;0.00;;;;;;;;5040237;28;8798;-84
2023/03/30 14:54:33;;;;;;;;;1.00;1.00;;;;;;;;5039949;28;8785;-84
2023/03/30 14:57:00;;;;;;;;;1.00;1.00;;;;;;;;5040558;28;10027;-83
2023/03/30 14:59:26;;;;;;;;;2.50;0.50;;;;;;;;5052162;28;10709;-81
2023/03/30 15:01:52;;;;;;;;;2.33;0.67;;;;;;;;5059951;28;8784;-79
2023/03/30 15:04:19;;;;;;;;;2.00;0.67;;;;;;;;5061249;28;11605;-80
2023/03/30 15:06:46;;;;;;;;;2.00;2.00;;;;;;;;5060593;28;10214;-81
2023/03/30 15:09:16;;;;;;;;;0.00;0.00;;;;;;;;5053684;28;8744;-81